Main page
METAR-TAF:

METAR-TAF

Airports :

Wick, Scotland

Wick Airport

latitude: 58-27N, longitude: 003-05W, elevation: 39 m

Current weather observation

The report was made 34 minutes ago, at 22:50 UTC
Wind 2 kt from variable directions
Temperature 13°C
Humidity 88%
Pressure 1001 hPa
Visibility 10 km or more

METAR: EGPC 172250Z AUTO VRB02KT 9999 NCD 13/11 Q1001

Time: 00:24 (23:24 UTC)

Forecast

The report was made 3 hours and 27 minutes ago, at 19:57 UTC
Forecast valid from 17 at 21 UTC to 18 at 06 UTC
Wind 9 kt from the South
Visibility 10 km or more
Few clouds at a height of 1400 ft

TAF: EGPC 171957Z 1721/1806 19009KT 9999 FEW014

Weather observations and forecasts of more than 4000 airports (METAR and TAF reports).

The available stations are represented by yellow and red dots on the map.

Hover mouse over dot to see the name of the station.

Then click to see weather observations and forecasts.

To change the map : click on the green buttons with a black cross to zoom in, on the green button with a dash to zoom out, or on the green arrows for adjacent maps.


METAR-TAF: